sensor_id;sensor_type;location;lat;lon;timestamp;pressure;altitude;pressure_sealevel;temperature;humidity
74675;BME280;63200;48.810;12.352;2024-01-06T00:01:14;96279.47;;;3.44;100.00
74675;BME280;63200;48.810;12.352;2024-01-06T00:03:40;96277.06;;;3.47;100.00
74675;BME280;63200;48.810;12.352;2024-01-06T00:06:05;96279.47;;;3.49;100.00
74675;BME280;63200;48.810;12.352;2024-01-06T00:08:31;96274.94;;;3.49;100.00
74675;BME280;63200;48.810;12.352;2024-01-06T00:10:56;96280.81;;;3.52;100.00
74675;BME280;63200;48.810;12.352;2024-01-06T00:13:21;96272.53;;;3.48;100.00
74675;BME280;63200;48.810;12.352;2024-01-06T00:15:46;96265.78;;;3.50;100.00
74675;BME280;63200;48.810;12.352;2024-01-06T00:18:12;96262.03;;;3.52;100.00
74675;BME280;63200;48.810;12.352;2024-01-06T00:20:37;96274.38;;;3.53;100.00
74675;BME280;63200;48.810;12.352;2024-01-06T00:23:03;96207.06;;;3.18;100.00
74675;BME280;63200;48.810;12.352;2024-01-06T00:25:28;96266.06;;;3.54;100.00
74675;BME280;63200;48.810;12.352;2024-01-06T00:27:54;96258.84;;;3.55;100.00
74675;BME280;63200;48.810;12.352;2024-01-06T00:30:19;96266.06;;;3.54;100.00
74675;BME280;63200;48.810;12.352;2024-01-06T00:32:44;96260.41;;;3.56;100.00
74675;BME280;63200;48.810;12.352;2024-01-06T00:35:10;96271.69;;;3.58;100.00
74675;BME280;63200;48.810;12.352;2024-01-06T00:37:35;96259.34;;;3.57;100.00
74675;BME280;63200;48.810;12.352;2024-01-06T00:40:00;96266.34;;;3.58;100.00
74675;BME280;63200;48.810;12.352;2024-01-06T00:42:25;96260.41;;;3.56;100.00
74675;BME280;63200;48.810;12.352;2024-01-06T00:44:51;96265.00;;;3.55;100.00
74675;BME280;63200;48.810;12.352;2024-01-06T00:47:16;96261.50;;;3.55;100.00
74675;BME280;63200;48.810;12.352;2024-01-06T00:49:41;96267.13;;;3.53;100.00
74675;BME280;63200;48.810;12.352;2024-01-06T00:52:07;96264.72;;;3.52;100.00
74675;BME280;63200;48.810;12.352;2024-01-06T00:54:32;96268.22;;;3.57;100.00
74675;BME280;63200;48.810;12.352;2024-01-06T00:56:57;96273.31;;;3.59;100.00
74675;BME280;63200;48.810;12.352;2024-01-06T00:59:23;96275.19;;;3.58;100.00
74675;BME280;63200;48.810;12.352;2024-01-06T01:01:48;96276.28;;;3.57;100.00
74675;BME280;63200;48.810;12.352;2024-01-06T01:04:13;96273.59;;;3.57;100.00
74675;BME280;63200;48.810;12.352;2024-01-06T01:06:38;96284.56;;;3.56;100.00
74675;BME280;63200;48.810;12.352;2024-01-06T01:09:04;96288.88;;;3.57;100.00
74675;BME280;63200;48.810;12.352;2024-01-06T01:11:30;96290.47;;;3.58;100.00
74675;BME280;63200;48.810;12.352;2024-01-06T01:13:55;96299.34;;;3.58;100.00
74675;BME280;63200;48.810;12.352;2024-01-06T01:16:20;96299.06;;;3.60;100.00
74675;BME280;63200;48.810;12.352;2024-01-06T01:18:46;96299.88;;;3.60;100.00
74675;BME280;63200;48.810;12.352;2024-01-06T01:21:11;96293.97;;;3.63;100.00
74675;BME280;63200;48.810;12.352;2024-01-06T01:23:36;96291.28;;;3.63;100.00
74675;BME280;63200;48.810;12.352;2024-01-06T01:26:01;96294.50;;;3.65;100.00
74675;BME280;63200;48.810;12.352;2024-01-06T01:28:27;96281.88;;;3.66;100.00
74675;BME280;63200;48.810;12.352;2024-01-06T01:30:52;96286.19;;;3.67;100.00
74675;BME280;63200;48.810;12.352;2024-01-06T01:33:17;96280.53;;;3.69;100.00
74675;BME280;63200;48.810;12.352;2024-01-06T01:35:43;96277.88;;;3.69;100.00
74675;BME280;63200;48.810;12.352;2024-01-06T01:38:08;96269.53;;;3.65;100.00
74675;BME280;63200;48.810;12.352;2024-01-06T01:40:34;96282.72;;;3.61;100.00
74675;BME280;63200;48.810;12.352;2024-01-06T01:42:59;96280.03;;;3.61;100.00
74675;BME280;63200;48.810;12.352;2024-01-06T01:45:24;96280.53;;;3.63;100.00
74675;BME280;63200;48.810;12.352;2024-01-06T01:47:50;96276.00;;;3.64;100.00
74675;BME280;63200;48.810;12.352;2024-01-06T01:50:15;96269.81;;;3.69;100.00
74675;BME280;63200;48.810;12.352;2024-01-06T01:52:41;96282.16;;;3.75;100.00
74675;BME280;63200;48.810;12.352;2024-01-06T01:55:08;96277.06;;;3.73;100.00
74675;BME280;63200;48.810;12.352;2024-01-06T01:57:33;96276.78;;;3.75;100.00
74675;BME280;63200;48.810;12.352;2024-01-06T02:00:00;96271.16;;;3.76;100.00
74675;BME280;63200;48.810;12.352;2024-01-06T02:02:26;96233.63;;;3.45;100.00
74675;BME280;63200;48.810;12.352;2024-01-06T02:04:54;96275.44;;;3.72;100.00
74675;BME280;63200;48.810;12.352;2024-01-06T02:07:19;96275.44;;;3.72;100.00
74675;BME280;63200;48.810;12.352;2024-01-06T02:09:45;96262.56;;;3.69;100.00
74675;BME280;63200;48.810;12.352;2024-01-06T02:12:10;96266.06;;;3.75;100.00
74675;BME280;63200;48.810;12.352;2024-01-06T02:14:35;96266.84;;;3.75;100.00
74675;BME280;63200;48.810;12.352;2024-01-06T02:17:01;96270.09;;;3.77;100.00
74675;BME280;63200;48.810;12.352;2024-01-06T02:19:26;96247.56;;;3.58;100.00
74675;BME280;63200;48.810;12.352;2024-01-06T02:21:54;96274.91;;;3.80;100.00
74675;BME280;63200;48.810;12.352;2024-01-06T02:24:20;96277.31;;;3.82;100.00
74675;BME280;63200;48.810;12.352;2024-01-06T02:26:46;96283.50;;;3.82;100.00
74675;BME280;63200;48.810;12.352;2024-01-06T02:29:12;96270.59;;;3.84;100.00
74675;BME280;63200;48.810;12.352;2024-01-06T02:31:37;96274.91;;;3.86;100.00
74675;BME280;63200;48.810;12.352;2024-01-06T02:34:02;96271.41;;;3.85;100.00
74675;BME280;63200;48.810;12.352;2024-01-06T02:36:27;96266.06;;;3.85;100.00
74675;BME280;63200;48.810;12.352;2024-01-06T02:38:53;96277.03;;;3.89;100.00
74675;BME280;63200;48.810;12.352;2024-01-06T02:41:18;96273.00;;;3.91;100.00
74675;BME280;63200;48.810;12.352;2024-01-06T02:43:43;96278.91;;;3.88;100.00
74675;BME280;63200;48.810;12.352;2024-01-06T02:46:08;96276.25;;;3.88;100.00
74675;BME280;63200;48.810;12.352;2024-01-06T02:48:34;96274.88;;;3.91;100.00
74675;BME280;63200;48.810;12.352;2024-01-06T02:50:59;96270.31;;;3.91;100.00
74675;BME280;63200;48.810;12.352;2024-01-06T02:53:24;96277.84;;;3.94;100.00
74675;BME280;63200;48.810;12.352;2024-01-06T02:55:50;96273.28;;;3.90;100.00
74675;BME280;63200;48.810;12.352;2024-01-06T02:58:15;96277.03;;;3.89;100.00
74675;BME280;63200;48.810;12.352;2024-01-06T03:00:40;96274.34;;;3.89;100.00
74675;BME280;63200;48.810;12.352;2024-01-06T03:03:06;96277.59;;;3.86;100.00
74675;BME280;63200;48.810;12.352;2024-01-06T03:05:31;96273.56;;;3.78;100.00
74675;BME280;63200;48.810;12.352;2024-01-06T03:07:56;96277.06;;;3.78;100.00
74675;BME280;63200;48.810;12.352;2024-01-06T03:10:22;96278.66;;;3.79;100.00
74675;BME280;63200;48.810;12.352;2024-01-06T03:12:47;96279.47;;;3.80;100.00
74675;BME280;63200;48.810;12.352;2024-01-06T03:15:13;96279.19;;;3.81;100.00
74675;BME280;63200;48.810;12.352;2024-01-06T03:17:38;96270.88;;;3.83;100.00
74675;BME280;63200;48.810;12.352;2024-01-06T03:20:04;96278.13;;;3.77;100.00
74675;BME280;63200;48.810;12.352;2024-01-06T03:22:29;96282.69;;;3.77;100.00
74675;BME280;63200;48.810;12.352;2024-01-06T03:24:55;96276.25;;;3.78;100.00
74675;BME280;63200;48.810;12.352;2024-01-06T03:27:20;96273.28;;;3.79;100.00
74675;BME280;63200;48.810;12.352;2024-01-06T03:29:45;96278.66;;;3.79;100.00
74675;BME280;63200;48.810;12.352;2024-01-06T03:32:11;96274.09;;;3.80;100.00
74675;BME280;63200;48.810;12.352;2024-01-06T03:34:37;96275.69;;;3.81;100.00
74675;BME280;63200;48.810;12.352;2024-01-06T03:37:02;96274.09;;;3.80;100.00
74675;BME280;63200;48.810;12.352;2024-01-06T03:39:27;96276.25;;;3.78;100.00
74675;BME280;63200;48.810;12.352;2024-01-06T03:41:53;96285.63;;;3.80;100.00
74675;BME280;63200;48.810;12.352;2024-01-06T03:44:18;96270.59;;;3.79;100.00
74675;BME280;63200;48.810;12.352;2024-01-06T03:46:43;96278.94;;;3.83;100.00
74675;BME280;63200;48.810;12.352;2024-01-06T03:49:09;96274.34;;;3.83;100.00
74675;BME280;63200;48.810;12.352;2024-01-06T03:51:34;96242.19;;;3.63;100.00
74675;BME280;63200;48.810;12.352;2024-01-06T03:53:59;96275.44;;;3.77;100.00
74675;BME280;63200;48.810;12.352;2024-01-06T03:56:24;96256.41;;;3.58;100.00
74675;BME280;63200;48.810;12.352;2024-01-06T03:58:50;96276.25;;;3.78;100.00
74675;BME280;63200;48.810;12.352;2024-01-06T04:01:15;96280.81;;;3.72;100.00
74675;BME280;63200;48.810;12.352;2024-01-06T04:03:40;96281.63;;;3.67;100.00
74675;BME280;63200;48.810;12.352;2024-01-06T04:06:06;96284.06;;;3.64;100.00
74675;BME280;63200;48.810;12.352;2024-01-06T04:08:31;96271.69;;;3.58;100.00
74675;BME280;63200;48.810;12.352;2024-01-06T04:10:56;96285.38;;;3.72;100.00
74675;BME280;63200;48.810;12.352;2024-01-06T04:13:22;96289.66;;;3.73;100.00
74675;BME280;63200;48.810;12.352;2024-01-06T04:15:49;96288.31;;;3.70;100.00
74675;BME280;63200;48.810;12.352;2024-01-06T04:18:15;96292.09;;;3.64;100.00
74675;BME280;63200;48.810;12.352;2024-01-06T04:20:40;96293.97;;;3.58;100.00
74675;BME280;63200;48.810;12.352;2024-01-06T04:23:05;96292.38;;;3.52;100.00
74675;BME280;63200;48.810;12.352;2024-01-06T04:25:30;96295.59;;;3.59;100.00
74675;BME280;63200;48.810;12.352;2024-01-06T04:27:56;96294.25;;;3.62;100.00
74675;BME280;63200;48.810;12.352;2024-01-06T04:30:21;96295.31;;;3.61;100.00
74675;BME280;63200;48.810;12.352;2024-01-06T04:32:46;96304.19;;;3.61;100.00
74675;BME280;63200;48.810;12.352;2024-01-06T04:35:14;96232.81;;;3.14;100.00
74675;BME280;63200;48.810;12.352;2024-01-06T04:37:39;96305.50;;;3.54;100.00
74675;BME280;63200;48.810;12.352;2024-01-06T04:40:05;96313.84;;;3.57;100.00
74675;BME280;63200;48.810;12.352;2024-01-06T04:42:30;96311.41;;;3.56;100.00
74675;BME280;63200;48.810;12.352;2024-01-06T04:44:56;96314.09;;;3.56;100.00
74675;BME280;63200;48.810;12.352;2024-01-06T04:47:21;96319.72;;;3.59;100.00
74675;BME280;63200;48.810;12.352;2024-01-06T04:49:46;96315.16;;;3.60;100.00
74675;BME280;63200;48.810;12.352;2024-01-06T04:52:12;96318.41;;;3.67;100.00
74675;BME280;63200;48.810;12.352;2024-01-06T04:54:37;96322.97;;;3.66;100.00
74675;BME280;63200;48.810;12.352;2024-01-06T04:57:02;96320.00;;;3.68;100.00
74675;BME280;63200;48.810;12.352;2024-01-06T04:59:29;96319.19;;;3.73;100.00
74675;BME280;63200;48.810;12.352;2024-01-06T05:01:54;96313.53;;;3.69;100.00
74675;BME280;63200;48.810;12.352;2024-01-06T05:04:20;96319.19;;;3.62;100.00
74675;BME280;63200;48.810;12.352;2024-01-06T05:06:45;96327.50;;;3.66;100.00
74675;BME280;63200;48.810;12.352;2024-01-06T05:09:10;96329.13;;;3.57;100.00
74675;BME280;63200;48.810;12.352;2024-01-06T05:11:36;96333.94;;;3.60;100.00
74675;BME280;63200;48.810;12.352;2024-01-06T05:14:01;96341.19;;;3.54;100.00
74675;BME280;63200;48.810;12.352;2024-01-06T05:16:26;96337.72;;;3.48;100.00
74675;BME280;63200;48.810;12.352;2024-01-06T05:18:53;96344.41;;;3.51;100.00
74675;BME280;63200;48.810;12.352;2024-01-06T05:21:18;96346.28;;;3.56;100.00
74675;BME280;63200;48.810;12.352;2024-01-06T05:23:43;96345.50;;;3.55;100.00
74675;BME280;63200;48.810;12.352;2024-01-06T05:26:09;96340.66;;;3.67;100.00
74675;BME280;63200;48.810;12.352;2024-01-06T05:28:34;96349.53;;;3.68;100.00
74675;BME280;63200;48.810;12.352;2024-01-06T05:30:59;96355.97;;;3.72;100.00
74675;BME280;63200;48.810;12.352;2024-01-06T05:33:25;96344.69;;;3.65;100.00
74675;BME280;63200;48.810;12.352;2024-01-06T05:35:50;96344.69;;;3.70;100.00
74675;BME280;63200;48.810;12.352;2024-01-06T05:38:15;96355.97;;;3.72;100.00
74675;BME280;63200;48.810;12.352;2024-01-06T05:40:42;96357.03;;;3.66;100.00
74675;BME280;63200;48.810;12.352;2024-01-06T05:43:07;96354.09;;;3.67;100.00
74675;BME280;63200;48.810;12.352;2024-01-06T05:45:33;96358.38;;;3.69;100.00
74675;BME280;63200;48.810;12.352;2024-01-06T05:47:58;96359.72;;;3.76;100.00
74675;BME280;63200;48.810;12.352;2024-01-06T05:50:23;96365.09;;;3.76;100.00
74675;BME280;63200;48.810;12.352;2024-01-06T05:52:49;96360.28;;;3.78;100.00
74675;BME280;63200;48.810;12.352;2024-01-06T05:55:15;96361.63;;;3.76;100.00
74675;BME280;63200;48.810;12.352;2024-01-06T05:57:40;96353.28;;;3.77;100.00
74675;BME280;63200;48.810;12.352;2024-01-06T06:00:09;96361.88;;;3.84;100.00
74675;BME280;63200;48.810;12.352;2024-01-06T06:02:36;96339.06;;;3.61;100.00
74675;BME280;63200;48.810;12.352;2024-01-06T06:05:01;96372.09;;;3.88;100.00
74675;BME280;63200;48.810;12.352;2024-01-06T06:07:26;96372.09;;;3.82;100.00
74675;BME280;63200;48.810;12.352;2024-01-06T06:09:52;96378.53;;;3.81;100.00
74675;BME280;63200;48.810;12.352;2024-01-06T06:12:18;96383.63;;;3.78;100.00
74675;BME280;63200;48.810;12.352;2024-01-06T06:14:43;96384.44;;;3.73;100.00
74675;BME280;63200;48.810;12.352;2024-01-06T06:17:08;96373.41;;;3.64;100.00
74675;BME280;63200;48.810;12.352;2024-01-06T06:19:34;96398.63;;;3.63;100.00
74675;BME280;63200;48.810;12.352;2024-01-06T06:21:59;96393.25;;;3.63;100.00
74675;BME280;63200;48.810;12.352;2024-01-06T06:24:24;96404.28;;;3.62;100.00
74675;BME280;63200;48.810;12.352;2024-01-06T06:26:50;96402.13;;;3.59;100.00
74675;BME280;63200;48.810;12.352;2024-01-06T06:29:15;96406.66;;;3.58;100.00
74675;BME280;63200;48.810;12.352;2024-01-06T06:31:41;96402.41;;;3.57;100.00
74675;BME280;63200;48.810;12.352;2024-01-06T06:34:08;96403.72;;;3.60;100.00
74675;BME280;63200;48.810;12.352;2024-01-06T06:36:34;96407.22;;;3.60;100.00
74675;BME280;63200;48.810;12.352;2024-01-06T06:38:59;96410.69;;;3.61;100.00
74675;BME280;63200;48.810;12.352;2024-01-06T06:41:25;96409.09;;;3.60;100.00
74675;BME280;63200;48.810;12.352;2024-01-06T06:43:50;96393.25;;;3.48;100.00
74675;BME280;63200;48.810;12.352;2024-01-06T06:46:16;96424.38;;;3.54;100.00
74675;BME280;63200;48.810;12.352;2024-01-06T06:48:41;96424.63;;;3.47;100.00
74675;BME280;63200;48.810;12.352;2024-01-06T06:51:06;96427.03;;;3.44;100.00
74675;BME280;63200;48.810;12.352;2024-01-06T06:53:32;96436.19;;;3.43;100.00
74675;BME280;63200;48.810;12.352;2024-01-06T06:55:57;96433.72;;;3.41;100.00
74675;BME280;63200;48.810;12.352;2024-01-06T06:58:22;96440.97;;;3.41;100.00
74675;BME280;63200;48.810;12.352;2024-01-06T07:00:48;96440.72;;;3.42;100.00
74675;BME280;63200;48.810;12.352;2024-01-06T07:03:13;96451.19;;;3.44;100.00
74675;BME280;63200;48.810;12.352;2024-01-06T07:05:39;96409.78;;;3.09;100.00
74675;BME280;63200;48.810;12.352;2024-01-06T07:08:04;96446.63;;;3.39;100.00
74675;BME280;63200;48.810;12.352;2024-01-06T07:10:30;96449.84;;;3.46;100.00
74675;BME280;63200;48.810;12.352;2024-01-06T07:12:55;96447.44;;;3.45;100.00
74675;BME280;63200;48.810;12.352;2024-01-06T07:15:20;96446.94;;;3.48;100.00
74675;BME280;63200;48.810;12.352;2024-01-06T07:17:46;96452.03;;;3.49;100.00
74675;BME280;63200;48.810;12.352;2024-01-06T07:20:11;96454.69;;;3.44;100.00
74675;BME280;63200;48.810;12.352;2024-01-06T07:22:37;96449.56;;;3.38;100.00
74675;BME280;63200;48.810;12.352;2024-01-06T07:25:02;96454.94;;;3.38;100.00
74675;BME280;63200;48.810;12.352;2024-01-06T07:27:28;96454.66;;;3.34;100.00
74675;BME280;63200;48.810;12.352;2024-01-06T07:29:53;96428.56;;;3.14;100.00
74675;BME280;63200;48.810;12.352;2024-01-06T07:32:20;96464.06;;;3.37;100.00
74675;BME280;63200;48.810;12.352;2024-01-06T07:34:46;96466.47;;;3.38;100.00
74675;BME280;63200;48.810;12.352;2024-01-06T07:37:11;96473.19;;;3.41;100.00
74675;BME280;63200;48.810;12.352;2024-01-06T07:39:37;96465.13;;;3.41;100.00
74675;BME280;63200;48.810;12.352;2024-01-06T07:42:02;96465.13;;;3.41;100.00
74675;BME280;63200;48.810;12.352;2024-01-06T07:44:28;96471.28;;;3.41;100.00
74675;BME280;63200;48.810;12.352;2024-01-06T07:46:53;96469.47;;;3.47;100.00
74675;BME280;63200;48.810;12.352;2024-01-06T07:49:18;96471.06;;;3.48;100.00
74675;BME280;63200;48.810;12.352;2024-01-06T07:51:44;96457.38;;;3.44;100.00
74675;BME280;63200;48.810;12.352;2024-01-06T07:54:09;96465.19;;;3.56;100.00
74675;BME280;63200;48.810;12.352;2024-01-06T07:56:35;96469.50;;;3.57;100.00
74675;BME280;63200;48.810;12.352;2024-01-06T07:59:03;96457.38;;;3.49;100.00
74675;BME280;63200;48.810;12.352;2024-01-06T08:01:29;96484.53;;;3.63;100.00
74675;BME280;63200;48.810;12.352;2024-01-06T08:03:55;96477.53;;;3.62;100.00
74675;BME280;63200;48.810;12.352;2024-01-06T08:06:20;96450.91;;;3.40;100.00
74675;BME280;63200;48.810;12.352;2024-01-06T08:08:45;96479.69;;;3.60;100.00
74675;BME280;63200;48.810;12.352;2024-01-06T08:11:11;96424.34;;;3.33;100.00
74675;BME280;63200;48.810;12.352;2024-01-06T08:13:37;96462.78;;;3.65;100.00
74675;BME280;63200;48.810;12.352;2024-01-06T08:16:02;96453.13;;;3.64;100.00
74675;BME280;63200;48.810;12.352;2024-01-06T08:18:28;96463.88;;;3.64;100.00
74675;BME280;63200;48.810;12.352;2024-01-06T08:20:53;96486.94;;;3.70;100.00
74675;BME280;63200;48.810;12.352;2024-01-06T08:23:18;96492.84;;;3.67;100.00
74675;BME280;63200;48.810;12.352;2024-01-06T08:25:45;96485.59;;;3.67;100.00
74675;BME280;63200;48.810;12.352;2024-01-06T08:28:11;96490.13;;;3.52;100.00
74675;BME280;63200;48.810;12.352;2024-01-06T08:30:36;96501.69;;;3.57;100.00
74675;BME280;63200;48.810;12.352;2024-01-06T08:33:02;96508.91;;;3.57;100.00
74675;BME280;63200;48.810;12.352;2024-01-06T08:35:27;96472.59;;;3.28;100.00
74675;BME280;63200;48.810;12.352;2024-01-06T08:37:52;96466.66;;;3.21;100.00
74675;BME280;63200;48.810;12.352;2024-01-06T08:40:18;96513.75;;;3.55;100.00
74675;BME280;63200;48.810;12.352;2024-01-06T08:42:43;96516.97;;;3.57;100.00
74675;BME280;63200;48.810;12.352;2024-01-06T08:45:09;96519.13;;;3.60;100.00
74675;BME280;63200;48.810;12.352;2024-01-06T08:47:34;96527.19;;;3.65;100.00
74675;BME280;63200;48.810;12.352;2024-01-06T08:50:00;96532.06;;;3.73;100.00
74675;BME280;63200;48.810;12.352;2024-01-06T08:52:25;96544.16;;;3.81;100.00
74675;BME280;63200;48.810;12.352;2024-01-06T08:54:50;96556.78;;;3.80;100.00
74675;BME280;63200;48.810;12.352;2024-01-06T08:57:16;96558.38;;;3.76;100.00
74675;BME280;63200;48.810;12.352;2024-01-06T08:59:41;96549.53;;;3.76;100.00
74675;BME280;63200;48.810;12.352;2024-01-06T09:02:06;96552.22;;;3.76;100.00
74675;BME280;63200;48.810;12.352;2024-01-06T09:04:32;96549.78;;;3.79;100.00
74675;BME280;63200;48.810;12.352;2024-01-06T09:06:58;96551.72;;;3.89;100.00
74675;BME280;63200;48.810;12.352;2024-01-06T09:09:23;96549.84;;;3.95;100.00
74675;BME280;63200;48.810;12.352;2024-01-06T09:11:49;96548.22;;;3.94;100.00
74675;BME280;63200;48.810;12.352;2024-01-06T09:14:18;96550.13;;;3.98;100.00
74675;BME280;63200;48.810;12.352;2024-01-06T09:16:43;96553.09;;;3.97;100.00
74675;BME280;63200;48.810;12.352;2024-01-06T09:19:08;96553.38;;;4.11;100.00
74675;BME280;63200;48.810;12.352;2024-01-06T09:21:34;96552.31;;;4.12;100.00
74675;BME280;63200;48.810;12.352;2024-01-06T09:24:01;96545.59;;;4.14;100.00
74675;BME280;63200;48.810;12.352;2024-01-06T09:26:31;96557.44;;;4.29;100.00
74675;BME280;63200;48.810;12.352;2024-01-06T09:28:56;96557.69;;;4.32;100.00
74675;BME280;63200;48.810;12.352;2024-01-06T09:31:21;96555.03;;;4.43;100.00
74675;BME280;63200;48.810;12.352;2024-01-06T09:33:47;96566.06;;;4.52;100.00
74675;BME280;63200;48.810;12.352;2024-01-06T09:36:12;96563.66;;;4.50;100.00
74675;BME280;63200;48.810;12.352;2024-01-06T09:38:38;96558.78;;;4.42;100.00
74675;BME280;63200;48.810;12.352;2024-01-06T09:41:04;96565.50;;;4.39;100.00
74675;BME280;63200;48.810;12.352;2024-01-06T09:43:29;96487.03;;;3.96;100.00
74675;BME280;63200;48.810;12.352;2024-01-06T09:46:06;96561.47;;;4.31;100.00
74675;BME280;63200;48.810;12.352;2024-01-06T09:48:35;96570.88;;;4.29;100.00
74675;BME280;63200;48.810;12.352;2024-01-06T09:51:05;96562.25;;;4.27;100.00
74675;BME280;63200;48.810;12.352;2024-01-06T09:53:34;96574.06;;;4.21;100.00
74675;BME280;63200;48.810;12.352;2024-01-06T09:56:03;96568.97;;;4.24;100.00
74675;BME280;63200;48.810;12.352;2024-01-06T09:58:30;96574.09;;;4.31;100.00
74675;BME280;63200;48.810;12.352;2024-01-06T10:01:00;96570.06;;;4.39;100.00
74675;BME280;63200;48.810;12.352;2024-01-06T10:03:26;96571.41;;;4.36;100.00
74675;BME280;63200;48.810;12.352;2024-01-06T10:05:52;96557.72;;;4.38;100.00
74675;BME280;63200;48.810;12.352;2024-01-06T10:08:18;96570.34;;;4.42;100.00
74675;BME280;63200;48.810;12.352;2024-01-06T10:10:44;96565.50;;;4.44;100.00
74675;BME280;63200;48.810;12.352;2024-01-06T10:13:10;96565.25;;;4.36;100.00
74675;BME280;63200;48.810;12.352;2024-01-06T10:15:35;96562.03;;;4.44;100.00
74675;BME280;63200;48.810;12.352;2024-01-06T10:18:01;96564.44;;;4.40;100.00
74675;BME280;63200;48.810;12.352;2024-01-06T10:20:28;96559.34;;;4.49;100.00
74675;BME280;63200;48.810;12.352;2024-01-06T10:22:54;96554.25;;;4.42;100.00
74675;BME280;63200;48.810;12.352;2024-01-06T10:25:23;96556.66;;;4.49;100.00
74675;BME280;63200;48.810;12.352;2024-01-06T10:27:48;96561.22;;;4.64;100.00
74675;BME280;63200;48.810;12.352;2024-01-06T10:30:14;96571.19;;;4.58;100.00
74675;BME280;63200;48.810;12.352;2024-01-06T10:32:43;96566.59;;;4.43;100.00
74675;BME280;63200;48.810;12.352;2024-01-06T10:35:09;96567.38;;;4.39;100.00
74675;BME280;63200;48.810;12.352;2024-01-06T10:37:35;96569.81;;;4.40;100.00
74675;BME280;63200;48.810;12.352;2024-01-06T10:40:15;96574.13;;;4.41;100.00
74675;BME280;63200;48.810;12.352;2024-01-06T10:42:41;96564.72;;;4.54;100.00
74675;BME280;63200;48.810;12.352;2024-01-06T10:45:09;96571.72;;;4.55;100.00
74675;BME280;63200;48.810;12.352;2024-01-06T10:47:40;96568.75;;;4.41;100.00
74675;BME280;63200;48.810;12.352;2024-01-06T10:50:06;96511.19;;;4.01;100.00
74675;BME280;63200;48.810;12.352;2024-01-06T10:52:33;96567.69;;;4.58;100.00
74675;BME280;63200;48.810;12.352;2024-01-06T10:55:01;96521.72;;;4.39;100.00
74675;BME280;63200;48.810;12.352;2024-01-06T10:57:28;96559.09;;;4.76;100.00
74675;BME280;63200;48.810;12.352;2024-01-06T10:59:57;96517.41;;;4.32;100.00
74675;BME280;63200;48.810;12.352;2024-01-06T11:02:24;96550.75;;;4.62;100.00
74675;BME280;63200;48.810;12.352;2024-01-06T11:04:51;96555.56;;;4.71;100.00
74675;BME280;63200;48.810;12.352;2024-01-06T11:07:18;96555.06;;;4.63;100.00
74675;BME280;63200;48.810;12.352;2024-01-06T11:10:14;96560.44;;;4.63;100.00
74675;BME280;63200;48.810;12.352;2024-01-06T11:12:43;96554.50;;;4.66;100.00
74675;BME280;63200;48.810;12.352;2024-01-06T11:15:09;96442.44;;;4.05;100.00
74675;BME280;63200;48.810;12.352;2024-01-06T11:17:54;96499.13;;;4.60;100.00
74675;BME280;63200;48.810;12.352;2024-01-06T11:20:24;96542.13;;;4.96;100.00
74675;BME280;63200;48.810;12.352;2024-01-06T11:22:50;96505.31;;;4.50;100.00
74675;BME280;63200;48.810;12.352;2024-01-06T11:25:18;96541.34;;;4.75;100.00
74675;BME280;63200;48.810;12.352;2024-01-06T11:27:46;96548.34;;;4.76;100.00
74675;BME280;63200;48.810;12.352;2024-01-06T11:30:22;96544.28;;;4.79;100.00
74675;BME280;63200;48.810;12.352;2024-01-06T11:32:50;96554.22;;;4.78;100.00
74675;BME280;63200;48.810;12.352;2024-01-06T11:35:18;96548.84;;;4.78;100.00
74675;BME280;63200;48.810;12.352;2024-01-06T11:40:10;96548.88;;;4.58;100.00
74675;BME280;63200;48.810;12.352;2024-01-06T11:42:45;96558.28;;;4.55;100.00
74675;BME280;63200;48.810;12.352;2024-01-06T11:45:10;96549.41;;;4.65;100.00
74675;BME280;63200;48.810;12.352;2024-01-06T11:47:36;96540.28;;;4.71;100.00
74675;BME280;63200;48.810;12.352;2024-01-06T11:50:03;96542.41;;;4.69;100.00
74675;BME280;63200;48.810;12.352;2024-01-06T11:52:30;96538.94;;;4.69;100.00
74675;BME280;63200;48.810;12.352;2024-01-06T11:54:56;96545.66;;;4.71;100.00
74675;BME280;63200;48.810;12.352;2024-01-06T11:57:21;96537.81;;;4.70;100.00
74675;BME280;63200;48.810;12.352;2024-01-06T11:59:48;96535.44;;;4.58;100.00
74675;BME280;63200;48.810;12.352;2024-01-06T12:02:13;96540.53;;;4.64;100.00
74675;BME280;63200;48.810;12.352;2024-01-06T12:04:39;96547.78;;;4.64;100.00
74675;BME280;63200;48.810;12.352;2024-01-06T12:07:08;96541.34;;;4.70;100.00
74675;BME280;63200;48.810;12.352;2024-01-06T12:09:34;96499.94;;;4.40;100.00
74675;BME280;63200;48.810;12.352;2024-01-06T12:12:02;96540.78;;;4.68;100.00
74675;BME280;63200;48.810;12.352;2024-01-06T12:14:27;96531.94;;;4.57;100.00
74675;BME280;63200;48.810;12.352;2024-01-06T12:16:53;96541.88;;;4.67;100.00
74675;BME280;63200;48.810;12.352;2024-01-06T12:19:20;96524.41;;;4.59;100.00
74675;BME280;63200;48.810;12.352;2024-01-06T12:21:46;96524.94;;;4.61;100.00
74675;BME280;63200;48.810;12.352;2024-01-06T12:24:18;96528.16;;;4.53;100.00
74675;BME280;63200;48.810;12.352;2024-01-06T12:26:46;96535.69;;;4.51;100.00
74675;BME280;63200;48.810;12.352;2024-01-06T12:29:12;96536.75;;;4.71;100.00
74675;BME280;63200;48.810;12.352;2024-01-06T12:31:38;96539.44;;;4.65;100.00
74675;BME280;63200;48.810;12.352;2024-01-06T12:34:04;96537.56;;;4.61;100.00
74675;BME280;63200;48.810;12.352;2024-01-06T12:36:30;96531.38;;;4.71;100.00
74675;BME280;63200;48.810;12.352;2024-01-06T12:38:57;96531.66;;;4.90;100.00
74675;BME280;63200;48.810;12.352;2024-01-06T12:41:23;96532.44;;;5.00;100.00
74675;BME280;63200;48.810;12.352;2024-01-06T12:43:49;96534.63;;;4.83;100.00
74675;BME280;63200;48.810;12.352;2024-01-06T12:46:14;96511.22;;;4.73;100.00